Home > Products > Valid Products > TAF

000
FTUS45 KVEF 260500
TAFLAS
TAF
KLAS 260520Z 2606/2706 21007KT P6SM FEW200
     FM260800 21007KT P6SM BKN200
     FM261700 VRB05KT P6SM SCT150 OVC200
     FM262000 15006KT P6SM FEW100 BKN150 OVC200=



000
FTUS45 KVEF 260500
TAFDAG
TAF
KDAG 260520Z 2606/2706 VRB05KT P6SM OVC250
     FM261000 28005KT P6SM SCT150 OVC200
     FM261800 12007KT P6SM VCSH SCT060 SCT100 OVC150=



000
FTUS45 KVEF 260500
TAFVGT
TAF
KVGT 260520Z 2606/2706 33005KT P6SM BKN250
     FM261700 VRB05KT P6SM SCT150 BKN200
     FM262000 12006KT P6SM FEW100 BKN150 OVC200=



000
FTUS45 KVEF 260500
TAFLAS
TAF
KLAS 260520Z 2606/2706 21007KT P6SM FEW200
     FM260800 21007KT P6SM BKN200
     FM261700 VRB05KT P6SM SCT150 OVC200
     FM262000 15006KT P6SM FEW100 BKN150 OVC200=



000
FTUS45 KVEF 260500
TAFEED
TAF
KEED 260520Z 2606/2706 33010KT P6SM OVC250
     FM261000 31008KT P6SM SCT150 OVC200
     FM261800 12007KT P6SM VCSH SCT060 SCT100 OVC150=



000
FTUS45 KVEF 260500
TAFBIH
TAF
KBIH 260520Z 2606/2706 34008KT P6SM SKC
     FM261600 VRB05KT P6SM BKN250
     FM262000 17007KT P6SM BKN150 OVC200=



000
FTUS45 KVEF 260200 AAB
TAFLAS
TAF AMD
KLAS 260249Z 2603/2624 21007KT P6SM FEW200
     FM260800 21007KT P6SM BKN200
     FM261700 VRB05KT P6SM SCT150 OVC200
     FM262000 15006KT P6SM FEW100 BKN150 OVC200=



000
FTUS45 KVEF 260200 AAB
TAFLAS
TAF AMD
KLAS 260249Z 2603/2624 21007KT P6SM FEW200
     FM260800 21007KT P6SM BKN200
     FM261700 VRB05KT P6SM SCT150 OVC200
     FM262000 15006KT P6SM FEW100 BKN150 OVC200=



000
FTUS45 KVEF 252300 AAA
TAFVGT
TAF AMD
KVGT 252333Z 2600/2624 VRB05KT P6SM SKC
     FM260300 33005KT P6SM SKC
     FM260600 33005KT P6SM BKN250
     FM261700 VRB05KT P6SM SCT150 BKN200
     FM262000 12006KT P6SM FEW100 BKN150 OVC200=



000
FTUS45 KVEF 252300 AAA
TAFLAS
TAF AMD
KLAS 252333Z 2600/2624 VRB05KT P6SM SKC
     FM260300 21007KT P6SM FEW250
     FM260800 21007KT P6SM BKN250
     FM261700 VRB05KT P6SM SCT150 OVC200
     FM262000 15006KT P6SM FEW100 BKN150 OVC200=



000
FTUS45 KVEF 252300 AAA
TAFLAS
TAF AMD
KLAS 252333Z 2600/2624 VRB05KT P6SM SKC
     FM260300 21007KT P6SM FEW250
     FM260800 21007KT P6SM BKN250
     FM261700 VRB05KT P6SM SCT150 OVC200
     FM262000 15006KT P6SM FEW100 BKN150 OVC200=



000
FTUS45 KVEF 252300
TAFEED
TAF
KEED 252320Z 2600/2624 01015G25KT P6SM OVC250
     FM260200 33010KT P6SM OVC250
     FM261000 31008KT P6SM SCT150 OVC200
     FM261800 12007KT P6SM VCSH SCT060 SCT100 OVC150=



000
FTUS45 KVEF 252300
TAFDAG
TAF
KDAG 252320Z 2600/2624 VRB05KT P6SM OVC250
     FM261000 28005KT P6SM SCT150 OVC200
     FM261800 12007KT P6SM VCSH SCT060 SCT100 OVC150=



000
FTUS45 KVEF 252300
TAFLAS
TAF
KLAS 252320Z 2600/2624 VRB05KT P6SM SKC
     FM260300 21007KT P6SM FEW250
     FM260800 21007KT P6SM BKN250
     FM261700 VRB05KT P6SM SCT150 OVC200
     FM262000 15006KT P6SM FEW100 BKN150 BKN200=



000
FTUS45 KVEF 252300
TAFVGT
TAF
KVGT 252320Z 2600/2624 VRB05KT P6SM SKC
     FM260300 33005KT P6SM SKC
     FM260600 33005KT P6SM BKN250
     FM261700 VRB05KT P6SM SCT150 BKN200
     FM262000 12006KT P6SM FEW100 BKN150 BKN200=



000
FTUS45 KVEF 252300
TAFBIH
TAF
KBIH 252320Z 2600/2624 34008KT P6SM SKC
     FM261600 VRB05KT P6SM BKN250
     FM262000 17007KT P6SM BKN150 OVC200=



000
FTUS45 KVEF 252300
TAFLAS
TAF
KLAS 252320Z 2600/2624 VRB05KT P6SM SKC
     FM260300 21007KT P6SM FEW250
     FM260800 21007KT P6SM BKN250
     FM261700 VRB05KT P6SM SCT150 OVC200
     FM262000 15006KT P6SM FEW100 BKN150 BKN200=



000
FTUS45 KVEF 252000 AAA
TAFLAS
TAF AMD
KLAS 252050Z 2521/2618 03008KT P6SM SKC
     FM260300 21007KT P6SM SKC
     FM261700 VRB05KT P6SM SCT150 BKN200=



000
FTUS45 KVEF 252000 AAA
TAFLAS
TAF AMD
KLAS 252050Z 2521/2618 03008KT P6SM SKC
     FM260300 21007KT P6SM SKC
     FM261700 VRB05KT P6SM SCT150 BKN200=



000
FTUS45 KVEF 251700
TAFDAG
TAF
KDAG 251728Z 2518/2618 08007KT P6SM SKC
     FM260300 VRB05KT P6SM SCT250
     FM261000 27005KT P6SM SCT100 OVC200=



000
FTUS45 KVEF 251700
TAFBIH
TAF
KBIH 251728Z 2518/2618 34008KT P6SM SKC
     FM261600 VRB05KT P6SM BKN250=



000
FTUS45 KVEF 251700
TAFEED
TAF
KEED 251728Z 2518/2618 01015G25KT P6SM SKC
     FM260300 35009KT P6SM SCT250
     FM261000 31007KT P6SM SCT100 OVC200=



000
FTUS45 KVEF 251700
TAFLAS
TAF
KLAS 251728Z 2518/2618 VRB05KT P6SM SKC
     FM252000 05007KT P6SM SKC
     FM260300 21007KT P6SM SKC
     FM261700 VRB05KT P6SM SCT150 BKN200=



000
FTUS45 KVEF 251700
TAFVGT
TAF
KVGT 251728Z 2518/2618 06007KT P6SM SKC
     FM260300 33005KT P6SM SKC
     FM261700 VRB05KT P6SM SCT150 BKN200=



000
FTUS45 KVEF 251700
TAFLAS
TAF
KLAS 251728Z 2518/2618 VRB05KT P6SM SKC
     FM252000 05007KT P6SM SKC
     FM260300 21007KT P6SM SKC
     FM261700 VRB05KT P6SM SCT150 BKN200=



000
FTUS45 KVEF 251400 AAA
TAFLAS
TAF AMD
KLAS 251450Z 2515/2612 20007KT P6SM SKC
     FM251900 05007KT P6SM SKC
     FM260300 21007KT P6SM SCT250=



000
FTUS45 KVEF 251400 AAA
TAFLAS
TAF AMD
KLAS 251450Z 2515/2612 20007KT P6SM SKC
     FM251900 05007KT P6SM SKC
     FM260300 21007KT P6SM SCT250=



000
FTUS45 KVEF 251100
TAFDAG
TAF
KDAG 251120Z 2512/2612 27005KT P6SM SKC
     FM251900 08007KT P6SM FEW250
     FM260300 VRB05KT P6SM SCT250
     FM260800 27005KT P6SM BKN250=



000
FTUS45 KVEF 251100
TAFVGT
TAF
KVGT 251120Z 2512/2612 34008KT P6SM SKC
     FM251900 04007KT P6SM SKC
     FM260300 33005KT P6SM SCT250=



000
FTUS45 KVEF 251100
TAFEED
TAF
KEED 251120Z 2512/2612 35014KT P6SM SKC
     FM251600 01015G25KT P6SM FEW250
     FM260300 35009KT P6SM SCT250
     FM260600 31007KT P6SM BKN250=



000
FTUS45 KVEF 251100
TAFBIH
TAF
KBIH 251120Z 2512/2612 34008KT P6SM SKC=



000
FTUS45 KVEF 251100
TAFLAS
TAF
KLAS 251120Z 2512/2612 20007KT P6SM SKC
     FM251900 05007KT P6SM SKC
     FM260300 21007KT P6SM SCT250=



000
FTUS45 KVEF 251100
TAFLAS
TAF
KLAS 251120Z 2512/2612 20007KT P6SM SKC
     FM251900 05007KT P6SM SKC
     FM260300 21007KT P6SM SCT250=



000
FTUS45 KVEF 250800 AAA
TAFLAS
TAF AMD
KLAS 250848Z 2509/2606 20007KT P6SM SKC
     FM251900 05007KT P6SM SKC
     FM260300 21007KT P6SM SCT250=



000
FTUS45 KVEF 250800 AAA
TAFLAS
TAF AMD
KLAS 250848Z 2509/2606 20007KT P6SM SKC
     FM251900 05007KT P6SM SKC
     FM260300 21007KT P6SM SCT250=



000
FTUS45 KVEF 250500
TAFLAS
TAF
KLAS 250520Z 2506/2606 27006KT P6SM SKC
     FM251900 05007KT P6SM SKC
     FM260300 21007KT P6SM SCT250=



000
FTUS45 KVEF 250500
TAFEED
TAF
KEED 250520Z 2506/2606 35014KT P6SM SKC
     FM251600 01015G25KT P6SM SKC
     FM260300 35009KT P6SM SCT250=



000
FTUS45 KVEF 250500
TAFDAG
TAF
KDAG 250520Z 2506/2606 27005KT P6SM SKC
     FM251900 08007KT P6SM SKC
     FM260300 VRB05KT P6SM SCT250=



000
FTUS45 KVEF 250500
TAFVGT
TAF
KVGT 250520Z 2506/2606 34008KT P6SM SKC
     FM251900 04007KT P6SM SKC
     FM260300 33005KT P6SM SCT250=



000
FTUS45 KVEF 250500
TAFLAS
TAF
KLAS 250520Z 2506/2606 27006KT P6SM SKC
     FM251900 05007KT P6SM SKC
     FM260300 21007KT P6SM SCT250=



000
FTUS45 KVEF 250500
TAFBIH
TAF
KBIH 250520Z 2506/2606 34008KT P6SM SKC=



000
FTUS45 KVEF 250200 AAB
TAFLAS
TAF AMD
KLAS 250245Z 2503/2524 22006KT P6SM SKC
     FM251900 05007KT P6SM SKC=



000
FTUS45 KVEF 250200 AAB
TAFLAS
TAF AMD
KLAS 250245Z 2503/2524 22006KT P6SM SKC
     FM251900 05007KT P6SM SKC=



000
FTUS45 KVEF 250200 AAA
TAFLAS
TAF AMD
KLAS 250216Z 2502/2524 18005KT P6SM SKC
     FM250300 22006KT P6SM SKC
     FM251900 05007KT P6SM SKC=



000
FTUS45 KVEF 250200 AAA
TAFLAS
TAF AMD
KLAS 250216Z 2502/2524 18005KT P6SM SKC
     FM250300 22006KT P6SM SKC
     FM251900 05007KT P6SM SKC=



000
FTUS45 KVEF 242300
TAFLAS
TAF
KLAS 242320Z 2500/2524 05008KT P6SM SKC
     FM250300 24006KT P6SM SKC
     FM251900 05007KT P6SM SKC=



000
FTUS45 KVEF 242300
TAFEED
TAF
KEED 242320Z 2500/2524 01018G28KT P6SM SKC
     FM250300 35014KT P6SM SKC
     FM251600 01015G25KT P6SM SKC=



000
FTUS45 KVEF 242300
TAFBIH
TAF
KBIH 242320Z 2500/2524 34008KT P6SM SKC
     FM252000 VRB05KT P6SM SKC=



000
FTUS45 KVEF 242300
TAFLAS
TAF
KLAS 242320Z 2500/2524 05008KT P6SM SKC
     FM250300 24006KT P6SM SKC
     FM251900 05007KT P6SM SKC=



000
FTUS45 KVEF 242300
TAFDAG
TAF
KDAG 242320Z 2500/2524 05009KT P6SM SKC
     FM250500 27005KT P6SM SKC
     FM251900 08007KT P6SM SKC=



000
FTUS45 KVEF 242300
TAFVGT
TAF
KVGT 242320Z 2500/2524 04008KT P6SM SKC
     FM250300 34008KT P6SM SKC
     FM251900 04007KT P6SM SKC=



000
FTUS45 KVEF 242000 AAB
TAFLAS
TAF AMD
KLAS 242056Z 2421/2518 05008KT P6SM SKC
     FM250300 34006KT P6SM SKC
     FM251700 02007KT P6SM SKC=



000
FTUS45 KVEF 242000 AAB
TAFLAS
TAF AMD
KLAS 242056Z 2421/2518 05008KT P6SM SKC
     FM250300 34006KT P6SM SKC
     FM251700 02007KT P6SM SKC=



000
FTUS45 KVEF 241900 AAA
TAFVGT
TAF AMD
KVGT 241904Z 2419/2518 02012G20KT P6SM SKC
     FM250300 34008KT P6SM SKC=



000
FTUS45 KVEF 241900 AAA
TAFLAS
TAF AMD
KLAS 241904Z 2419/2518 02010G18KT P6SM SKC
     FM250300 34006KT P6SM SKC
     FM251700 02007KT P6SM SKC=



000
FTUS45 KVEF 241900 AAA
TAFLAS
TAF AMD
KLAS 241904Z 2419/2518 02010G18KT P6SM SKC
     FM250300 34006KT P6SM SKC
     FM251700 02007KT P6SM SKC=



000
FTUS45 KVEF 241700
TAFLAS
TAF
KLAS 241735Z 2418/2518 05009KT P6SM SKC
     FM250300 34006KT P6SM SKC
     FM251700 02007KT P6SM SKC=



000
FTUS45 KVEF 241700
TAFEED
TAF
KEED 241735Z 2418/2518 01022G32KT P6SM SKC
     FM250300 35014KT P6SM SKC
     FM251600 01015G25KT P6SM SKC=



000
FTUS45 KVEF 241700
TAFBIH
TAF
KBIH 241735Z 2418/2518 35010KT P6SM SKC=



000
FTUS45 KVEF 241700
TAFDAG
TAF
KDAG 241735Z 2418/2518 35005KT P6SM SKC
     FM241900 05009KT P6SM SKC
     FM250500 27005KT P6SM SKC=



000
FTUS45 KVEF 241700
TAFVGT
TAF
KVGT 241735Z 2418/2518 02010KT P6SM SKC
     FM250300 34008KT P6SM SKC=



000
FTUS45 KVEF 241400 AAA
TAFLAS
TAF AMD
KLAS 241443Z 2415/2512 VRB06KT P6SM SKC
     FM241700 06010G16KT P6SM SKC
     FM250200 21005KT P6SM SKC=



000
FTUS45 KVEF 241400 AAA
TAFLAS
TAF AMD
KLAS 241443Z 2415/2512 VRB06KT P6SM SKC
     FM241700 06010G16KT P6SM SKC
     FM250200 21005KT P6SM SKC=



000
FTUS45 KVEF 241400 AAA
TAFVGT
TAF AMD
KVGT 241443Z 2415/2512 35014G22KT P6SM SKC
     FM242100 01010G16KT P6SM SKC
     FM250200 34005KT P6SM SKC=



000
FTUS45 KVEF 241100
TAFEED
TAF
KEED 241120Z 2412/2512 36020G28KT P6SM SKC
     FM241700 01022G32KT P6SM SKC
     FM250200 35014KT P6SM SKC=



000
FTUS45 KVEF 241100
TAFBIH
TAF
KBIH 241120Z 2412/2512 35010KT P6SM SKC=



000
FTUS45 KVEF 241100
TAFLAS
TAF
KLAS 241120Z 2412/2512 VRB06KT P6SM SKC
     FM241700 06010G16KT P6SM SKC
     FM250200 21005KT P6SM SKC=



000
FTUS45 KVEF 241100
TAFLAS
TAF
KLAS 241120Z 2412/2512 VRB06KT P6SM SKC
     FM241700 06010G16KT P6SM SKC
     FM250200 21005KT P6SM SKC=



000
FTUS45 KVEF 241100
TAFVGT
TAF
KVGT 241120Z 2412/2512 03010KT P6SM SKC
     FM241600 35012G22KT P6SM SKC
     FM242100 01010G16KT P6SM SKC
     FM250200 34005KT P6SM SKC=



000
FTUS45 KVEF 241100
TAFDAG
TAF
KDAG 241120Z 2412/2512 30008KT P6SM SKC
     FM241800 05009KT P6SM SKC
     FM250500 27005KT P6SM SKC=



000
FTUS45 KVEF 240800 AAB
TAFLAS
TAF AMD
KLAS 240846Z 2409/2506 03008KT P6SM SKC
     FM241700 02010G16KT P6SM SKC
     FM250200 21005KT P6SM SKC=



000
FTUS45 KVEF 240800 AAB
TAFLAS
TAF AMD
KLAS 240846Z 2409/2506 03008KT P6SM SKC
     FM241700 02010G16KT P6SM SKC
     FM250200 21005KT P6SM SKC=



000
FTUS45 KVEF 240800 AAB
TAFBIH
TAF AMD
KBIH 240823Z 2408/2506 33012KT P6SM SKC
     FM240900 34010G18KT P6SM SKC
     FM241800 35010KT P6SM SKC=



000
FTUS45 KVEF 240800 AAA
TAFBIH
TAF AMD
KBIH 240822Z 2408/2506 36012KT P6SM SKC
     FM240900 34010G18KT P6SM SKC
     FM241800 35010KT P6SM SKC=



000
FTUS45 KVEF 240700 AAA
TAFLAS
TAF AMD
KLAS 240736Z 2408/2506 03008KT P6SM SKC
     FM241700 02010G16KT P6SM SKC
     FM250200 21005KT P6SM SKC=



000
FTUS45 KVEF 240700 AAA
TAFLAS
TAF AMD
KLAS 240736Z 2408/2506 03008KT P6SM SKC
     FM241700 02010G16KT P6SM SKC
     FM250200 21005KT P6SM SKC=



000
FTUS45 KVEF 240500
TAFBIH
TAF
KBIH 240520Z 2406/2506 36012G20KT P6SM SKC
     FM240900 34010G18KT P6SM SKC
     FM241800 35010KT P6SM SKC=



000
FTUS45 KVEF 240500
TAFLAS
TAF
KLAS 240520Z 2406/2506 24007KT P6SM SKC
     FM240800 35008KT P6SM SKC
     FM241700 02010G16KT P6SM SKC
     FM250200 21005KT P6SM SKC=



000
FTUS45 KVEF 240500
TAFLAS
TAF
KLAS 240520Z 2406/2506 24007KT P6SM SKC
     FM240800 35008KT P6SM SKC
     FM241700 02010G16KT P6SM SKC
     FM250200 21005KT P6SM SKC=



000
FTUS45 KVEF 240500
TAFVGT
TAF
KVGT 240520Z 2406/2506 35012KT P6SM SKC
     FM241600 35012G22KT P6SM SKC
     FM242100 01010G16KT P6SM SKC
     FM250200 34005KT P6SM SKC=



000
FTUS45 KVEF 240500
TAFEED
TAF
KEED 240520Z 2406/2506 36015G22KT P6SM SKC
     FM241700 01022G32KT P6SM SKC
     FM250200 35014KT P6SM SKC=



000
FTUS45 KVEF 240500
TAFDAG
TAF
KDAG 240520Z 2406/2506 26008KT P6SM SKC
     FM241500 32008KT P6SM SKC
     FM241800 05009KT P6SM SKC=



000
FTUS45 KVEF 240200 AAB
TAFLAS
TAF AMD
KLAS 240247Z 2403/2424 24007KT P6SM SKC
     FM240800 35008KT P6SM SKC
     FM241700 02012G18KT P6SM SKC=



000
FTUS45 KVEF 240200 AAB
TAFLAS
TAF AMD
KLAS 240247Z 2403/2424 24007KT P6SM SKC
     FM240800 35008KT P6SM SKC
     FM241700 02012G18KT P6SM SKC=



000
FTUS45 KVEF 240200 AAA
TAFLAS
TAF AMD
KLAS 240209Z 2402/2424 24007KT P6SM SKC
     FM240800 35008KT P6SM SKC
     FM241700 02012G18KT P6SM SKC=



000
FTUS45 KVEF 240200 AAA
TAFLAS
TAF AMD
KLAS 240209Z 2402/2424 24007KT P6SM SKC
     FM240800 35008KT P6SM SKC
     FM241700 02012G18KT P6SM SKC=



000
FTUS45 KVEF 232300
TAFEED
TAF
KEED 232323Z 2400/2424 01011KT P6SM BKN220
     FM240200 34011KT P6SM SKC
     FM240500 36015G22KT P6SM SKC
     FM241700 01022G32KT P6SM SKC=



000
FTUS45 KVEF 232300
TAFDAG
TAF
KDAG 232323Z 2400/2424 VRB05KT P6SM SKC
     FM240500 26008KT P6SM SKC
     FM241500 32008KT P6SM SKC
     FM241800 05009KT P6SM SKC=



000
FTUS45 KVEF 232300
TAFBIH
TAF
KBIH 232323Z 2400/2424 36015G25KT P6SM SKC
     FM240900 34010G18KT P6SM SKC
     FM241800 35010KT P6SM SKC=



000
FTUS45 KVEF 232300
TAFVGT
TAF
KVGT 232323Z 2400/2424 13005KT P6SM SKC
     FM240400 34008KT P6SM SKC
     FM240600 35012KT P6SM SKC
     FM241600 35012G22KT P6SM SKC=



000
FTUS45 KVEF 232300
TAFLAS
TAF
KLAS 232323Z 2400/2424 15005KT P6SM SKC
     FM240300 24007KT P6SM SKC
     FM240800 35008KT P6SM SKC
     FM241700 02012G18KT P6SM SKC=



000
FTUS45 KVEF 232000 AAA
TAFLAS
TAF AMD
KLAS 232033Z 2321/2418 11006KT P6SM SKC
     FM240300 24007KT P6SM SKC
     FM240800 35008KT P6SM SKC=



000
FTUS45 KVEF 232000 AAA
TAFLAS
TAF AMD
KLAS 232033Z 2321/2418 11006KT P6SM SKC
     FM240300 24007KT P6SM SKC
     FM240800 35008KT P6SM SKC=



000
FTUS45 KVEF 231700
TAFLAS
TAF
KLAS 231728Z 2318/2418 VRB05KT P6SM SCT200
     FM232100 08006KT P6SM SKC
     FM240300 24007KT P6SM SKC
     FM240800 35008KT P6SM SKC=



000
FTUS45 KVEF 231700
TAFEED
TAF
KEED 231728Z 2318/2418 01013KT P6SM BKN220
     FM240300 34012KT P6SM SKC
     FM241700 01020G30KT P6SM SKC=



000
FTUS45 KVEF 231700
TAFVGT
TAF
KVGT 231728Z 2318/2418 VRB05KT P6SM SCT200
     FM232100 VRB05KT P6SM SKC
     FM240600 35012KT P6SM SKC=



000
FTUS45 KVEF 231700
TAFBIH
TAF
KBIH 231728Z 2318/2418 33012KT P6SM SKC
     FM232100 36015G23KT P6SM SKC
     FM240500 34012KT P6SM SKC=



000
FTUS45 KVEF 231700
TAFLAS
TAF
KLAS 231728Z 2318/2418 VRB05KT P6SM SCT200
     FM232100 08006KT P6SM SKC
     FM240300 24007KT P6SM SKC
     FM240800 35008KT P6SM SKC=



000
FTUS45 KVEF 231700
TAFDAG
TAF
KDAG 231728Z 2318/2418 VRB05KT P6SM FEW200
     FM240500 26008KT P6SM SKC=



000
FTUS45 KVEF 231400 AAA
TAFLAS
TAF AMD
KLAS 231446Z 2315/2412 20008KT P6SM SCT200
     FM231600 VRB05KT P6SM SCT250
     FM232000 08006KT P6SM SKC
     FM240300 24007KT P6SM SKC=



000
FTUS45 KVEF 231400 AAA
TAFLAS
TAF AMD
KLAS 231446Z 2315/2412 20008KT P6SM SCT200
     FM231600 VRB05KT P6SM SCT250
     FM232000 08006KT P6SM SKC
     FM240300 24007KT P6SM SKC=



000
FTUS45 KVEF 231100
TAFDAG
TAF
KDAG 231120Z 2312/2412 VRB05KT P6SM FEW250
     FM232200 06006KT P6SM SKC
     FM240500 26007KT P6SM SKC=



000
FTUS45 KVEF 231100
TAFLAS
TAF
KLAS 231120Z 2312/2412 20008KT P6SM BKN250
     FM231600 VRB05KT P6SM SCT250
     FM232000 08006KT P6SM SKC
     FM240300 24007KT P6SM SKC=



000
FTUS45 KVEF 231100
TAFBIH
TAF
KBIH 231120Z 2312/2412 35007KT P6SM SKC
     FM231800 35010G17KT P6SM SKC
     FM232100 36017G25KT P6SM SKC
     FM240500 33012KT P6SM SKC=



000
FTUS45 KVEF 231100
TAFVGT
TAF
KVGT 231120Z 2312/2412 31006KT P6SM BKN250
     FM231800 03006KT P6SM SCT250
     FM240600 35010KT P6SM SKC=



000
FTUS45 KVEF 231100
TAFEED
TAF
KEED 231120Z 2312/2412 VRB05KT P6SM BKN250
     FM231800 01011KT P6SM SCT250
     FM240300 34011KT P6SM SKC=



000
FTUS45 KVEF 231100
TAFLAS
TAF
KLAS 231120Z 2312/2412 20008KT P6SM BKN250
     FM231600 VRB05KT P6SM SCT250
     FM232000 08006KT P6SM SKC
     FM240300 24007KT P6SM SKC=



000
FTUS45 KVEF 230800 AAA
TAFLAS
TAF AMD
KLAS 230847Z 2309/2406 20008KT P6SM BKN250
     FM231600 VRB05KT P6SM SKC
     FM232000 05006KT P6SM SKC
     FM240300 21007KT P6SM SKC=



000
FTUS45 KVEF 230800 AAA
TAFLAS
TAF AMD
KLAS 230847Z 2309/2406 20008KT P6SM BKN250
     FM231600 VRB05KT P6SM SKC
     FM232000 05006KT P6SM SKC
     FM240300 21007KT P6SM SKC=



    US Dept of Commerce
    National Oceanic and Atmospheric Administration
    National Weather Service
    1325 East West Highway
    Silver Spring, MD 20910
    Page Author: NWS Internet Services Team
Disclaimer
Information Quality
Credits
Glossary
Privacy Policy
Freedom of Information Act (FOIA)
About Us
Career Opportunities